Time;durP1;ratioP1;P1;durP2;ratioP2;P2;SDS_P1;SDS_P2;PMS_P1;PMS_P2;Temp;Humidity;BMP_temperature;BMP_pressure;BME280_temperature;BME280_humidity;BME280_pressure;Samples;Min_cycle;Max_cycle;Signal;HPM_P1;HPM_P2
2023/03/20 00:01:54;;;;;;;27.13;25.23;;;;;;;15.84;55.08;101908.38;5012962;28;20037;-67
2023/03/20 00:04:19;;;;;;;27.50;25.50;;;;;;;15.83;54.97;101903.19;5017038;28;20393;-66
2023/03/20 00:06:45;;;;;;;30.17;27.60;;;;;;;15.83;55.21;101904.00;5020770;28;20042;-65
2023/03/20 00:09:12;;;;;;;27.20;25.45;;;;;;;15.82;55.05;101906.97;5020859;28;20033;-65
2023/03/20 00:11:52;;;;;;;28.60;26.55;;;;;;;15.79;54.90;101897.41;5030396;28;20037;-66
2023/03/20 00:14:21;;;;;;;26.60;24.90;;;;;;;15.77;54.97;101886.78;5016093;28;20065;-66
2023/03/20 00:16:48;;;;;;;29.73;27.67;;;;;;;15.76;55.35;101879.66;5024490;28;20080;-65
2023/03/20 00:19:16;;;;;;;26.63;25.02;;;;;;;15.75;54.95;101875.28;5023418;28;20040;-65
2023/03/20 00:21:46;;;;;;;27.23;25.42;;;;;;;15.75;55.06;101877.19;5030923;28;20091;-65
2023/03/20 00:24:13;;;;;;;31.23;29.33;;;;;;;15.73;54.91;101871.97;5008425;28;20036;-66
2023/03/20 00:26:39;;;;;;;28.70;26.85;;;;;;;15.72;55.04;101862.19;5018115;28;20080;-66
2023/03/20 00:29:06;;;;;;;27.95;25.95;;;;;;;15.71;55.26;101862.41;5029539;28;20069;-65
2023/03/20 00:31:38;;;;;;;28.15;26.38;;;;;;;15.68;54.85;101860.16;5018712;28;20081;-66
2023/03/20 00:34:11;;;;;;;28.23;26.25;;;;;;;15.68;54.86;101857.44;5021173;28;20041;-65
2023/03/20 00:36:36;;;;;;;30.20;27.83;;;;;;;15.66;55.06;101859.59;5013780;28;20449;-65
2023/03/20 00:41:53;;;;;;;27.83;26.00;;;;;;;15.62;54.83;101861.16;5261497;22;20076;-74
2023/03/20 00:44:34;;;;;;;29.58;27.58;;;;;;;15.56;54.86;101860.25;5019050;28;20029;-66
2023/03/20 00:47:03;;;;;;;29.20;27.20;;;;;;;15.55;54.88;101864.06;5011991;28;20026;-66
2023/03/20 00:49:31;;;;;;;27.98;26.15;;;;;;;15.53;55.12;101877.91;5013209;28;20030;-66
2023/03/20 00:51:57;;;;;;;26.45;24.40;;;;;;;15.52;55.31;101894.47;5014111;28;20029;-66
2023/03/20 00:54:23;;;;;;;28.63;26.42;;;;;;;15.50;54.90;101900.19;5013275;28;20026;-66
2023/03/20 00:56:56;;;;;;;28.48;26.27;;;;;;;15.49;54.81;101909.41;5013346;28;20045;-66
2023/03/20 00:59:25;;;;;;;31.38;29.15;;;;;;;15.48;54.80;101907.78;5013777;28;20033;-66
2023/03/20 01:01:51;;;;;;;28.10;25.92;;;;;;;15.47;54.70;101913.47;5013303;28;20022;-66
2023/03/20 01:04:18;;;;;;;30.95;28.92;;;;;;;15.44;54.69;101903.88;5013404;28;20022;-67
2023/03/20 01:06:44;;;;;;;27.55;25.35;;;;;;;15.43;54.83;101891.34;5012973;28;20030;-66
2023/03/20 01:09:10;;;;;;;29.00;26.95;;;;;;;15.42;55.11;101872.53;5013735;28;20088;-66
2023/03/20 01:11:36;;;;;;;28.60;26.20;;;;;;;15.40;54.74;101872.81;5013515;28;20084;-67
2023/03/20 01:14:02;;;;;;;27.45;25.48;;;;;;;15.39;55.13;101875.75;5012810;28;20025;-66
2023/03/20 01:16:28;;;;;;;26.73;24.92;;;;;;;15.36;55.00;101874.34;5012571;28;20320;-67
2023/03/20 01:18:53;;;;;;;27.70;25.55;;;;;;;15.35;55.26;101891.78;5013309;28;20135;-67
2023/03/20 01:21:20;;;;;;;27.70;25.83;;;;;;;15.33;54.96;101888.47;5012794;28;20442;-67
2023/03/20 01:23:46;;;;;;;25.75;24.05;;;;;;;15.30;54.74;101889.78;5013566;28;20088;-66
2023/03/20 01:26:22;;;;;;;26.08;24.55;;;;;;;15.28;54.82;101882.94;5015129;28;20104;-66
2023/03/20 01:28:50;;;;;;;25.35;23.77;;;;;;;15.27;54.80;101864.94;5032571;28;20466;-66
2023/03/20 01:31:17;;;;;;;26.95;24.75;;;;;;;15.25;55.04;101869.84;5015436;28;20454;-67
2023/03/20 01:33:42;;;;;;;27.27;25.33;;;;;;;15.23;55.11;101859.19;5016343;28;20486;-67
2023/03/20 01:36:13;;;;;;;26.42;24.35;;;;;;;15.22;55.06;101854.81;5016930;28;20060;-66
2023/03/20 01:38:39;;;;;;;26.40;24.55;;;;;;;15.21;54.86;101849.59;5016257;28;20021;-67
2023/03/20 01:41:13;;;;;;;27.08;25.08;;;;;;;15.19;54.75;101854.47;5016031;28;20049;-66
2023/03/20 01:43:39;;;;;;;25.95;24.15;;;;;;;15.15;54.71;101860.41;5016510;28;20026;-67
2023/03/20 01:46:10;;;;;;;27.65;25.63;;;;;;;15.14;54.78;101866.94;5016569;28;20378;-66
2023/03/20 01:48:51;;;;;;;28.95;26.73;;;;;;;15.11;55.00;101858.41;5014763;28;20032;-66
2023/03/20 01:51:18;;;;;;;26.42;24.52;;;;;;;15.09;55.09;101855.97;5016605;28;20038;-66
2023/03/20 01:53:49;;;;;;;28.05;26.25;;;;;;;15.07;55.12;101868.97;5016106;28;20063;-67
2023/03/20 01:56:16;;;;;;;28.80;26.77;;;;;;;15.06;54.94;101878.19;5016362;28;20026;-66
2023/03/20 01:58:47;;;;;;;25.98;24.35;;;;;;;15.06;54.85;101889.09;5015918;28;20056;-66
2023/03/20 02:01:14;;;;;;;27.00;24.60;;;;;;;15.04;55.06;101893.13;5016304;28;20022;-66
2023/03/20 02:03:42;;;;;;;28.20;25.95;;;;;;;15.03;54.65;101905.09;5016065;28;20041;-67
2023/03/20 02:06:09;;;;;;;24.83;23.13;;;;;;;15.01;54.66;101912.66;5014582;28;20072;-66
2023/03/20 02:08:52;;;;;;;27.77;26.00;;;;;;;14.97;54.64;101906.91;5015656;28;20037;-66
2023/03/20 02:11:22;;;;;;;27.42;25.33;;;;;;;14.97;54.63;101893.28;5016487;28;20026;-66
2023/03/20 02:13:50;;;;;;;25.90;24.33;;;;;;;14.96;54.96;101890.81;5015745;28;20030;-66
2023/03/20 02:16:16;;;;;;;26.30;24.40;;;;;;;14.93;54.80;101892.13;5016116;28;20046;-66
2023/03/20 02:18:47;;;;;;;27.13;25.17;;;;;;;14.90;54.89;101890.72;5015547;28;20036;-66
2023/03/20 02:21:31;;;;;;;26.20;24.48;;;;;;;14.88;54.51;101890.13;5016349;28;20030;-66
2023/03/20 02:24:30;;;;;;;26.15;24.30;;;;;;;14.86;54.84;101888.72;5015723;28;20353;-66
2023/03/20 02:27:23;;;;;;;24.77;22.80;;;;;;;14.80;55.11;101868.75;5015421;28;20079;-67
2023/03/20 02:30:06;;;;;;;23.25;21.80;;;;;;;14.79;54.87;101872.56;5015843;28;20029;-67
2023/03/20 02:33:19;;;;;;;30.38;28.27;;;;;;;14.77;54.81;101854.84;5015553;28;20134;-66
2023/03/20 02:36:08;;;;;;;26.27;24.50;;;;;;;14.75;54.94;101865.94;5005593;28;20033;-66
2023/03/20 02:38:45;;;;;;;29.27;27.13;;;;;;;14.75;54.84;101867.84;4993851;28;20478;-66
2023/03/20 02:41:19;;;;;;;25.83;24.02;;;;;;;14.73;54.89;101873.50;5015622;28;20513;-67
2023/03/20 02:44:03;;;;;;;27.38;25.00;;;;;;;14.72;54.76;101861.00;5014870;28;20024;-66
2023/03/20 02:46:42;;;;;;;25.77;24.00;;;;;;;14.71;54.92;101867.47;5015304;28;20026;-66
2023/03/20 02:49:10;;;;;;;25.85;24.17;;;;;;;14.70;54.76;101863.94;5015306;28;20108;-66
2023/03/20 02:51:52;;;;;;;27.30;25.38;;;;;;;14.69;55.07;101856.00;5014873;28;20109;-66
2023/03/20 02:54:45;;;;;;;26.02;24.23;;;;;;;14.64;54.71;101840.44;5014222;28;20040;-66
2023/03/20 02:57:19;;;;;;;27.48;25.08;;;;;;;14.63;54.95;101846.94;5014090;28;20443;-67
2023/03/20 02:59:57;;;;;;;26.10;24.25;;;;;;;14.62;54.69;101836.34;5014803;28;20454;-67
2023/03/20 03:02:34;;;;;;;25.17;23.45;;;;;;;14.60;54.90;101831.13;5015144;28;20029;-66
2023/03/20 03:05:08;;;;;;;25.40;23.80;;;;;;;14.59;54.85;101839.50;5015243;28;20358;-66
2023/03/20 03:07:35;;;;;;;28.75;26.30;;;;;;;14.57;54.99;101828.06;5014621;28;20454;-66
2023/03/20 03:10:06;;;;;;;23.92;22.25;;;;;;;14.57;54.94;101842.50;5014820;28;20021;-66
2023/03/20 03:12:40;;;;;;;27.15;25.13;;;;;;;14.55;54.79;101835.66;5015302;28;20378;-67
2023/03/20 03:15:13;;;;;;;26.27;24.25;;;;;;;14.53;54.68;101833.16;5014507;28;20053;-66
2023/03/20 03:17:41;;;;;;;26.70;24.67;;;;;;;14.54;54.86;101839.41;5014789;28;20505;-67
2023/03/20 03:20:20;;;;;;;25.15;23.27;;;;;;;14.50;54.89;101841.78;5015193;28;20335;-65
2023/03/20 03:22:46;;;;;;;;;;;;;;;14.46;54.73;101835.16;5014871;28;20417;-65
2023/03/20 03:25:12;;;;;;;26.58;24.77;;;;;;;14.45;55.01;101836.22;5014374;28;20341;-65
2023/03/20 03:27:42;;;;;;;26.23;24.52;;;;;;;14.44;54.66;101840.84;5012728;28;20026;-65
2023/03/20 03:30:23;;;;;;;26.42;24.73;;;;;;;14.42;55.03;101821.22;5014225;28;20072;-65
2023/03/20 03:32:56;;;;;;;27.77;25.33;;;;;;;14.42;54.87;101820.41;5014094;28;20320;-65
2023/03/20 03:35:22;;;;;;;28.52;26.52;;;;;;;14.40;54.81;101814.38;5014448;28;20030;-65
2023/03/20 03:38:30;;;;;;;26.45;24.48;;;;;;;14.37;54.79;101806.72;5014584;28;20026;-65
2023/03/20 03:41:36;;;;;;;24.42;22.80;;;;;;;14.33;54.81;101808.25;5014364;28;20089;-65
2023/03/20 03:44:25;;;;;;;24.77;23.17;;;;;;;14.31;54.79;101813.94;5014082;28;20037;-65
2023/03/20 03:47:05;;;;;;;25.80;24.00;;;;;;;14.28;54.62;101809.81;5013983;28;20374;-65
2023/03/20 03:49:35;;;;;;;26.48;24.40;;;;;;;14.29;54.79;101813.38;5013352;28;20029;-66
2023/03/20 03:52:08;;;;;;;24.15;22.30;;;;;;;14.27;54.99;101818.22;5012700;28;20395;-65
2023/03/20 03:54:48;;;;;;;25.83;23.88;;;;;;;14.26;54.97;101820.13;5014430;28;20446;-66
2023/03/20 03:57:19;;;;;;;25.08;23.25;;;;;;;14.25;55.12;101818.44;5015193;28;20033;-65
2023/03/20 03:59:49;;;;;;;27.75;25.60;;;;;;;14.26;54.79;101819.25;5014595;28;20106;-65
2023/03/20 04:02:18;;;;;;;23.90;22.52;;;;;;;14.24;54.88;101816.81;5014005;28;20026;-66
2023/03/20 04:04:47;;;;;;;24.67;22.98;;;;;;;14.24;54.59;101811.38;5013780;28;20026;-65
2023/03/20 04:07:12;;;;;;;;;;;;;;;14.18;54.78;101811.50;5014708;28;20056;-66
2023/03/20 04:09:38;;;;;;;23.90;22.33;;;;;;;14.17;55.14;101805.25;5013801;28;19945;-65
2023/03/20 04:12:03;;;;;;;23.80;22.33;;;;;;;14.16;54.86;101805.47;5013966;28;20075;-65
2023/03/20 04:14:29;;;;;;;26.25;24.25;;;;;;;14.16;54.89;101798.16;5013670;28;20025;-66
2023/03/20 04:16:57;;;;;;;24.90;23.15;;;;;;;14.16;55.05;101802.75;5013094;28;20033;-66
2023/03/20 04:19:22;;;;;;;24.98;23.38;;;;;;;14.15;54.98;101801.13;5013721;28;20033;-66
2023/03/20 04:21:48;;;;;;;24.88;22.90;;;;;;;14.14;54.52;101799.47;5013610;28;20109;-66
2023/03/20 04:24:14;;;;;;;25.23;23.67;;;;;;;14.13;55.00;101803.25;5012857;28;20030;-66
2023/03/20 04:26:40;;;;;;;25.52;23.77;;;;;;;14.10;55.07;101798.28;5014333;28;20438;-66
2023/03/20 04:29:05;;;;;;;23.05;21.50;;;;;;;14.10;54.84;101799.13;5013557;28;20037;-65
2023/03/20 04:31:31;;;;;;;25.38;23.58;;;;;;;14.09;55.09;101796.66;5013197;28;20512;-66
2023/03/20 04:33:56;;;;;;;24.15;22.40;;;;;;;14.08;54.66;101801.25;5013506;28;20030;-65
2023/03/20 04:36:22;;;;;;;24.77;22.50;;;;;;;14.09;54.83;101786.59;5013790;28;20026;-65
2023/03/20 04:38:47;;;;;;;26.80;24.45;;;;;;;14.06;54.91;101782.47;5013895;28;20407;-66
2023/03/20 04:41:13;;;;;;;25.23;23.52;;;;;;;14.06;54.95;101789.78;5012185;28;20053;-66
2023/03/20 04:43:39;;;;;;;23.55;22.08;;;;;;;14.05;55.03;101780.00;5013367;28;20462;-66
2023/03/20 04:46:05;;;;;;;23.80;22.40;;;;;;;14.03;54.78;101777.50;5013347;28;20091;-66
2023/03/20 04:48:30;;;;;;;25.45;23.75;;;;;;;14.02;54.96;101781.31;5013331;28;20030;-65
2023/03/20 04:50:56;;;;;;;27.45;25.65;;;;;;;14.01;54.68;101776.94;5013929;28;20026;-66
2023/03/20 04:53:21;;;;;;;24.83;23.13;;;;;;;14.00;54.85;101772.56;5013810;28;20461;-66
2023/03/20 04:55:47;;;;;;;26.50;24.63;;;;;;;13.98;54.65;101766.53;5013463;28;20026;-66
2023/03/20 04:58:13;;;;;;;22.50;20.92;;;;;;;13.98;54.75;101777.41;5013589;28;20044;-65
2023/03/20 05:00:38;;;;;;;27.27;25.35;;;;;;;13.96;54.93;101776.84;5016103;28;20378;-66
2023/03/20 05:03:03;;;;;;;22.77;21.33;;;;;;;13.96;54.88;101779.56;5016985;28;20091;-66
2023/03/20 05:05:29;;;;;;;24.83;23.05;;;;;;;13.95;54.59;101782.50;5016489;28;20435;-66
2023/03/20 05:07:55;;;;;;;28.35;26.30;;;;;;;13.94;54.88;101770.81;5016853;28;20164;-66
2023/03/20 05:10:20;;;;;;;22.17;20.63;;;;;;;13.92;54.68;101772.94;5015652;28;20355;-65
2023/03/20 05:12:47;;;;;;;26.45;24.45;;;;;;;13.92;54.61;101772.13;5016474;28;20132;-66
2023/03/20 05:15:12;;;;;;;24.85;22.90;;;;;;;13.91;54.56;101770.44;5016880;28;20052;-66
2023/03/20 05:17:37;;;;;;;24.55;22.98;;;;;;;13.89;54.80;101761.75;5016749;28;20463;-66
2023/03/20 05:20:04;;;;;;;23.25;21.88;;;;;;;13.88;54.65;101770.94;5016726;28;20458;-65
2023/03/20 05:22:29;;;;;;;24.08;22.50;;;;;;;13.87;54.75;101772.00;5016664;28;20030;-65
2023/03/20 05:24:54;;;;;;;24.17;22.42;;;;;;;13.85;54.84;101770.34;5017052;28;20041;-65
2023/03/20 05:27:20;;;;;;;26.48;24.73;;;;;;;13.83;54.83;101772.50;5017142;28;20386;-66
2023/03/20 05:29:45;;;;;;;25.70;23.80;;;;;;;13.83;54.61;101772.50;5015802;28;20112;-66
2023/03/20 05:32:11;;;;;;;22.13;20.83;;;;;;;13.82;54.74;101764.59;5017078;28;20025;-65
2023/03/20 05:34:37;;;;;;;23.45;22.15;;;;;;;13.79;54.59;101755.03;5016747;28;20036;-66
2023/03/20 05:37:03;;;;;;;25.33;23.52;;;;;;;13.78;54.74;101749.81;5016387;28;20030;-65
2023/03/20 05:39:28;;;;;;;22.45;21.23;;;;;;;13.78;54.73;101750.66;5016836;28;20033;-66
2023/03/20 05:41:53;;;;;;;24.80;22.73;;;;;;;13.77;54.89;101754.44;5015046;28;20069;-65
2023/03/20 05:44:19;;;;;;;22.52;21.10;;;;;;;13.76;54.69;101754.69;5016249;28;20030;-66
2023/03/20 05:46:45;;;;;;;25.92;23.98;;;;;;;13.76;54.93;101762.84;5016236;28;20370;-66
2023/03/20 05:49:10;;;;;;;25.25;23.10;;;;;;;13.75;54.76;101761.16;5016289;28;20041;-65
2023/03/20 05:51:36;;;;;;;22.13;20.90;;;;;;;13.74;54.67;101768.50;5016023;28;20481;-65
2023/03/20 05:54:01;;;;;;;24.10;22.45;;;;;;;13.72;54.93;101775.22;5014803;28;20033;-66
2023/03/20 05:56:27;;;;;;;24.10;22.35;;;;;;;13.70;54.79;101778.16;5016063;28;20360;-65
2023/03/20 05:58:52;;;;;;;22.98;21.52;;;;;;;13.70;54.68;101783.59;5015945;28;20033;-66
2023/03/20 06:01:20;;;;;;;26.15;24.25;;;;;;;13.70;54.94;101794.47;5015999;28;20033;-66
2023/03/20 06:03:49;;;;;;;24.30;22.10;;;;;;;13.70;54.81;101793.63;5014654;28;20038;-66
2023/03/20 06:06:16;;;;;;;22.88;21.38;;;;;;;13.68;54.72;101791.16;5015754;28;20048;-66
2023/03/20 06:08:41;;;;;;;24.98;21.73;;;;;;;13.67;54.89;101799.56;5015799;28;20052;-66
2023/03/20 06:11:07;;;;;;;23.33;21.55;;;;;;;13.66;54.73;101793.31;5015120;28;20030;-66
2023/03/20 06:13:33;;;;;;;23.60;22.08;;;;;;;13.64;54.82;101804.38;5015394;28;20041;-66
2023/03/20 06:15:58;;;;;;;23.75;22.23;;;;;;;13.63;54.56;101796.47;5014905;28;20030;-66
2023/03/20 06:18:24;;;;;;;21.85;20.02;;;;;;;13.62;54.49;101801.06;5015404;28;20029;-66
2023/03/20 06:20:53;;;;;;;22.17;20.58;;;;;;;13.62;54.39;101798.38;5015508;28;20057;-66
2023/03/20 06:23:19;;;;;;;21.95;20.55;;;;;;;13.60;54.63;101800.47;5015565;28;20061;-66
2023/03/20 06:25:45;;;;;;;23.45;21.77;;;;;;;13.60;54.79;101805.09;5015373;28;20030;-67
2023/03/20 06:28:10;;;;;;;20.98;19.67;;;;;;;13.59;54.38;101803.44;5014275;28;20026;-66
2023/03/20 06:30:36;;;;;;;25.10;22.98;;;;;;;13.57;54.40;101800.97;5014627;28;20026;-66
2023/03/20 06:33:02;;;;;;;25.33;23.20;;;;;;;13.57;54.48;101806.38;5015910;28;20076;-67
2023/03/20 06:35:30;;;;;;;24.15;22.45;;;;;;;13.57;54.78;101805.56;5015370;28;20030;-66
2023/03/20 06:37:55;;;;;;;24.63;22.35;;;;;;;13.56;54.77;101812.91;5015168;28;20022;-67
2023/03/20 06:40:21;;;;;;;20.58;19.38;;;;;;;13.55;54.53;101815.84;5015111;28;20185;-67
2023/03/20 06:42:46;;;;;;;25.50;23.83;;;;;;;13.54;54.51;101819.63;5015402;28;20053;-68
2023/03/20 06:45:12;;;;;;;21.80;20.60;;;;;;;13.53;54.70;101820.66;5013921;28;20124;-66
2023/03/20 06:47:37;;;;;;;23.33;21.85;;;;;;;13.53;54.64;101831.53;5013903;28;20371;-66
2023/03/20 06:50:03;;;;;;;24.58;22.50;;;;;;;13.52;54.78;101835.31;5014588;28;20419;-66
2023/03/20 06:52:29;;;;;;;23.23;21.60;;;;;;;13.50;54.46;101830.09;5015064;28;20029;-65
2023/03/20 06:54:55;;;;;;;22.60;21.23;;;;;;;13.49;54.81;101833.91;5015066;28;20026;-67
2023/03/20 06:57:21;;;;;;;23.27;21.70;;;;;;;13.50;54.68;101837.44;5014826;28;20032;-67
2023/03/20 06:59:46;;;;;;;23.90;22.00;;;;;;;13.50;54.68;101846.41;5015388;28;20374;-68
2023/03/20 07:02:12;;;;;;;23.65;21.83;;;;;;;13.50;54.64;101849.09;5014643;28;20369;-67
2023/03/20 07:04:37;;;;;;;24.63;22.67;;;;;;;13.49;54.51;101850.19;5015330;28;20407;-67
2023/03/20 07:07:03;;;;;;;23.98;22.23;;;;;;;13.49;54.73;101847.47;5014681;28;20084;-67
2023/03/20 07:09:29;;;;;;;23.88;22.02;;;;;;;13.49;54.73;101852.06;5014708;28;20026;-67
2023/03/20 07:11:54;;;;;;;23.42;21.90;;;;;;;13.48;54.61;101844.97;5014476;28;20395;-66
2023/03/20 07:14:20;;;;;;;23.00;21.33;;;;;;;13.48;54.67;101844.97;5014938;28;20056;-66
2023/03/20 07:16:45;;;;;;;22.90;21.35;;;;;;;13.45;54.63;101854.41;5014478;28;20030;-66
2023/03/20 07:19:12;;;;;;;23.60;21.92;;;;;;;13.45;54.69;101854.41;5013286;28;20034;-67
2023/03/20 07:21:37;;;;;;;22.15;20.77;;;;;;;13.46;54.74;101866.94;5013398;28;20048;-66
2023/03/20 07:24:03;;;;;;;22.88;21.42;;;;;;;13.44;54.88;101860.91;5013984;28;20034;-66
2023/03/20 07:26:29;;;;;;;23.77;22.08;;;;;;;13.44;54.59;101860.91;5014076;28;20122;-66
2023/03/20 07:28:54;;;;;;;26.73;24.42;;;;;;;13.44;54.99;101862.81;5014145;28;20413;-66
2023/03/20 07:31:22;;;;;;;23.48;21.77;;;;;;;13.44;54.95;101870.97;5014029;28;20030;-66
2023/03/20 07:33:48;;;;;;;23.73;21.92;;;;;;;13.41;54.73;101867.66;5014277;28;20022;-67
2023/03/20 07:36:13;;;;;;;25.88;23.52;;;;;;;13.40;55.08;101865.97;5012050;28;20378;-69
2023/03/20 07:38:39;;;;;;;22.20;20.80;;;;;;;13.40;55.01;101868.69;5013736;28;20424;-67
2023/03/20 07:41:05;;;;;;;25.17;23.25;;;;;;;13.39;54.85;101864.31;5013853;28;20359;-67
2023/03/20 07:43:31;;;;;;;22.52;21.23;;;;;;;13.37;55.01;101857.47;5012639;28;20037;-65
2023/03/20 07:45:56;;;;;;;23.52;21.88;;;;;;;13.36;54.97;101853.94;5013764;28;20030;-68
2023/03/20 07:48:22;;;;;;;23.48;21.92;;;;;;;13.36;55.14;101861.28;5013798;28;20351;-66
2023/03/20 07:50:48;;;;;;;21.60;20.30;;;;;;;13.35;54.71;101863.13;5012166;28;20042;-65
2023/03/20 07:53:14;;;;;;;23.63;21.70;;;;;;;13.34;55.08;101860.66;5012199;28;20037;-65
2023/03/20 07:55:39;;;;;;;21.52;20.10;;;;;;;13.35;55.00;101859.59;5014294;28;20435;-66
2023/03/20 07:58:07;;;;;;;23.08;21.27;;;;;;;13.34;54.78;101861.50;5012783;28;20092;-68
2023/03/20 08:00:32;;;;;;;23.13;21.15;;;;;;;13.35;54.86;101865.84;5014161;28;20053;-68
2023/03/20 08:02:58;;;;;;;23.25;21.77;;;;;;;13.34;54.96;101850.63;5013570;28;20120;-68
2023/03/20 08:05:23;;;;;;;24.67;22.73;;;;;;;13.34;54.96;101857.97;5013486;28;20128;-65
2023/03/20 08:07:49;;;;;;;22.65;20.70;;;;;;;13.34;55.04;101856.06;5013854;28;20343;-66
2023/03/20 08:10:15;;;;;;;24.83;23.10;;;;;;;13.33;54.94;101857.13;5013516;28;20076;-66
2023/03/20 08:12:40;;;;;;;27.23;25.38;;;;;;;13.34;55.02;101857.97;5013286;28;20030;-66
2023/03/20 08:15:06;;;;;;;25.10;23.08;;;;;;;13.34;54.92;101857.97;5013710;28;20484;-66
2023/03/20 08:17:32;;;;;;;22.35;20.95;;;;;;;13.32;54.95;101855.47;5013031;28;20034;-66
2023/03/20 08:19:57;;;;;;;22.15;20.73;;;;;;;13.30;55.14;101854.03;5013018;28;20516;-64
2023/03/20 08:22:22;;;;;;;22.27;20.88;;;;;;;13.32;55.08;101863.59;5011740;28;20120;-66
2023/03/20 08:24:48;;;;;;;25.38;23.50;;;;;;;13.32;55.03;101863.59;5011944;28;20045;-66
2023/03/20 08:27:13;;;;;;;23.75;22.30;;;;;;;13.33;54.95;101867.13;5013025;28;20034;-66
2023/03/20 08:29:39;;;;;;;21.90;20.42;;;;;;;13.33;54.88;101867.13;5012967;28;20132;-67
2023/03/20 08:32:05;;;;;;;22.80;21.35;;;;;;;13.32;55.00;101858.19;5012864;28;20041;-66
2023/03/20 08:34:32;;;;;;;20.88;19.67;;;;;;;13.31;54.91;101867.41;5014135;28;20030;-66
2023/03/20 08:36:57;;;;;;;21.25;19.85;;;;;;;13.30;54.97;101867.63;5016805;28;20113;-67
2023/03/20 08:39:23;;;;;;;22.15;20.88;;;;;;;13.31;55.04;101870.09;5000141;28;20042;-67
2023/03/20 08:41:48;;;;;;;22.95;21.50;;;;;;;13.29;55.00;101869.50;5015098;28;20478;-67
2023/03/20 08:44:14;;;;;;;21.98;20.67;;;;;;;13.30;54.98;101873.03;5016783;28;20046;-66
2023/03/20 08:46:39;;;;;;;22.75;21.25;;;;;;;13.30;54.92;101873.03;5016841;28;20033;-66
2023/03/20 08:49:05;;;;;;;24.10;22.67;;;;;;;13.29;55.12;101868.69;5016767;28;20527;-66
2023/03/20 08:51:31;;;;;;;22.80;21.05;;;;;;;13.30;55.14;101867.63;5016480;28;20030;-68
2023/03/20 08:53:56;;;;;;;22.08;20.90;;;;;;;13.30;55.03;101871.16;5016737;28;20034;-66
2023/03/20 08:56:22;;;;;;;19.88;18.63;;;;;;;13.32;54.94;101870.94;5016573;28;20041;-66
2023/03/20 08:58:47;;;;;;;24.83;23.20;;;;;;;13.32;55.12;101865.50;5016576;28;20459;-66
2023/03/20 09:01:14;;;;;;;26.95;24.85;;;;;;;13.31;54.99;101861.97;5015178;28;20368;-66
2023/03/20 09:03:40;;;;;;;25.27;23.05;;;;;;;13.30;55.22;101871.16;5015267;28;20038;-66
2023/03/20 09:06:07;;;;;;;25.80;23.45;;;;;;;13.32;54.91;101870.94;5016141;28;20470;-66
2023/03/20 09:08:34;;;;;;;22.08;20.58;;;;;;;13.32;55.14;101874.47;5017143;28;20066;-66
2023/03/20 09:10:59;;;;;;;21.25;19.98;;;;;;;13.30;55.09;101871.16;5016424;28;20030;-67
2023/03/20 09:13:25;;;;;;;21.20;20.00;;;;;;;13.30;55.03;101873.88;5015930;28;20030;-67
2023/03/20 09:15:51;;;;;;;23.90;22.00;;;;;;;13.32;55.27;101873.63;5016262;28;20040;-67
2023/03/20 09:18:18;;;;;;;22.77;21.25;;;;;;;13.33;55.25;101881.56;5016286;28;20116;-67
2023/03/20 09:20:44;;;;;;;23.90;22.05;;;;;;;13.33;55.05;101872.56;5015926;28;20077;-65
2023/03/20 09:23:10;;;;;;;25.40;23.23;;;;;;;13.32;55.26;101885.31;5015794;28;20056;-65
2023/03/20 09:25:35;;;;;;;21.95;20.42;;;;;;;13.33;55.27;101878.00;5016733;28;20455;-68
2023/03/20 09:28:01;;;;;;;20.45;19.33;;;;;;;13.32;55.23;101882.59;5015184;28;20109;-68
2023/03/20 09:30:26;;;;;;;21.40;19.80;;;;;;;13.32;55.21;101877.19;5014655;28;20037;-67
2023/03/20 09:32:51;;;;;;;21.92;20.52;;;;;;;13.32;55.41;101869.03;4999101;28;20081;-67
2023/03/20 09:35:17;;;;;;;22.90;21.30;;;;;;;13.29;55.32;101860.53;5015893;28;20038;-68
2023/03/20 09:37:43;;;;;;;21.65;20.13;;;;;;;13.30;55.33;101863.00;5015708;28;20119;-67
2023/03/20 09:40:22;;;;;;;23.77;22.00;;;;;;;13.30;55.33;101865.72;5015647;28;20080;-67
2023/03/20 09:43:28;;;;;;;21.33;20.13;;;;;;;13.28;55.42;101862.44;5015734;28;20041;-67
2023/03/20 09:46:12;;;;;;;24.58;23.08;;;;;;;13.27;55.32;101863.47;5012302;28;20041;-67
2023/03/20 09:49:19;;;;;;;21.98;20.50;;;;;;;13.27;55.43;101854.53;5015576;28;20428;-67
2023/03/20 09:51:54;;;;;;;25.02;23.33;;;;;;;13.25;55.39;101860.13;4992493;28;20103;-67
2023/03/20 09:54:41;;;;;;;22.02;20.10;;;;;;;13.24;55.45;101861.22;5016184;28;20115;-67
2023/03/20 09:57:26;;;;;;;19.58;18.45;;;;;;;13.23;55.56;101865.00;5015749;28;20092;-68
2023/03/20 09:59:58;;;;;;;21.92;20.52;;;;;;;13.24;55.34;101855.78;5016112;28;20026;-66
2023/03/20 10:02:35;;;;;;;22.92;21.33;;;;;;;13.26;55.72;101866.41;5015351;28;20034;-66
2023/03/20 10:05:03;;;;;;;19.80;18.65;;;;;;;13.27;55.45;101863.47;5015560;28;20029;-67
2023/03/20 10:07:28;;;;;;;20.55;19.25;;;;;;;13.27;55.70;101854.53;5015423;28;20042;-67
2023/03/20 10:09:54;;;;;;;21.90;20.55;;;;;;;13.28;55.65;101848.88;5015401;28;20092;-67
2023/03/20 10:12:43;;;;;;;20.13;18.98;;;;;;;13.29;55.43;101842.38;5015500;28;20040;-67
2023/03/20 10:15:37;;;;;;;20.40;19.08;;;;;;;13.23;55.69;101847.88;5015139;28;20398;-68
2023/03/20 10:18:25;;;;;;;19.92;18.38;;;;;;;13.27;55.68;101849.09;5011425;28;20100;-68
2023/03/20 10:21:17;;;;;;;22.38;20.52;;;;;;;13.26;55.54;101840.09;5015297;28;20034;-68
2023/03/20 10:24:00;;;;;;;22.15;20.65;;;;;;;13.28;55.58;101848.03;5015168;28;20033;-67
2023/03/20 10:26:29;;;;;;;21.90;20.63;;;;;;;13.27;55.63;101851.81;5014818;28;20041;-68
2023/03/20 10:29:31;;;;;;;21.08;19.73;;;;;;;13.29;55.67;101846.97;5015125;28;20029;-68
2023/03/20 10:32:01;;;;;;;20.60;19.45;;;;;;;13.28;55.58;101848.03;5012470;28;20084;-68
2023/03/20 10:35:14;;;;;;;21.60;20.00;;;;;;;13.29;55.54;101841.56;5015227;28;20026;-68
2023/03/20 10:38:15;;;;;;;22.65;20.95;;;;;;;13.28;55.60;101848.88;5005731;28;20116;-68
2023/03/20 10:40:41;;;;;;;21.15;19.55;;;;;;;13.26;55.87;101842.00;5009884;28;20056;-66
2023/03/20 10:43:27;;;;;;;22.08;20.38;;;;;;;13.27;55.54;101838.25;5014723;28;20534;-67
2023/03/20 10:45:59;;;;;;;22.58;21.08;;;;;;;13.29;55.87;101846.97;5014285;28;20470;-67
2023/03/20 10:48:31;;;;;;;22.42;20.98;;;;;;;13.29;55.87;101842.38;5014638;28;20116;-66
2023/03/20 10:51:00;;;;;;;21.55;20.35;;;;;;;13.31;55.71;101836.72;5014064;28;20444;-66
2023/03/20 10:53:50;;;;;;;22.33;21.13;;;;;;;13.31;55.80;101832.13;5014247;28;20091;-67
2023/03/20 10:56:31;;;;;;;21.30;20.00;;;;;;;13.30;55.80;101819.59;5014070;28;20029;-66
2023/03/20 10:59:02;;;;;;;20.58;19.38;;;;;;;13.33;55.71;101827.28;5014233;28;20455;-66
2023/03/20 11:01:28;;;;;;;22.42;20.77;;;;;;;13.35;55.74;101825.13;5013920;28;20033;-65
2023/03/20 11:03:54;;;;;;;21.60;20.08;;;;;;;13.35;55.95;101827.84;5013970;28;20037;-69
2023/03/20 11:06:28;;;;;;;22.80;21.25;;;;;;;13.36;55.68;101823.28;5014032;28;20082;-66
2023/03/20 11:08:54;;;;;;;21.00;19.75;;;;;;;13.38;55.81;101823.84;5014193;28;20113;-63
2023/03/20 11:11:32;;;;;;;23.70;21.13;;;;;;;13.39;55.74;101812.75;5013647;28;20122;-66
2023/03/20 11:14:14;;;;;;;19.45;18.35;;;;;;;13.39;55.86;101810.06;5014554;28;20040;-66
2023/03/20 11:16:40;;;;;;;20.40;19.27;;;;;;;13.40;55.77;101803.56;5014212;28;20462;-66
2023/03/20 11:19:09;;;;;;;22.75;21.23;;;;;;;13.41;56.01;101807.13;5013703;28;20088;-66
2023/03/20 11:21:45;;;;;;;21.38;19.92;;;;;;;13.39;55.76;101791.06;5014145;28;20061;-66
2023/03/20 11:24:50;;;;;;;22.35;21.05;;;;;;;13.40;56.04;101806.25;5013893;28;20034;-68
2023/03/20 11:27:23;;;;;;;22.00;20.17;;;;;;;13.40;55.70;101800.84;4972481;28;20049;-66